Time;durP1;ratioP1;P1;durP2;ratioP2;P2;SDS_P1;SDS_P2;PMS_P1;PMS_P2;Temp;Humidity;BMP_temperature;BMP_pressure;BME280_temperature;BME280_humidity;BME280_pressure;Samples;Min_cycle;Max_cycle;Signal;HPM_P1;HPM_P2
2023/01/09 00:01:36;;;;;;;2.25;1.20;;;;;;;16.66;50.61;99412.75;6155966;23;20485;-34
2023/01/09 00:04:04;;;;;;;1.85;1.10;;;;;;;16.66;50.18;99418.94;6156261;23;20025;-34
2023/01/09 00:06:30;;;;;;;1.83;1.10;;;;;;;16.66;50.41;99408.22;6156213;23;20029;-34
2023/01/09 00:08:57;;;;;;;2.35;1.45;;;;;;;16.65;49.81;99414.59;6152363;23;20025;-34
2023/01/09 00:11:23;;;;;;;4.35;1.45;;;;;;;16.67;49.98;99414.41;6152950;23;20064;-34
2023/01/09 00:13:50;;;;;;;2.50;1.25;;;;;;;16.66;50.06;99415.44;6154032;23;20025;-35
2023/01/09 00:16:16;;;;;;;2.40;1.17;;;;;;;16.65;50.70;99411.09;6154265;23;20044;-34
2023/01/09 00:18:43;;;;;;;3.13;1.55;;;;;;;16.65;50.84;99421.78;6153997;23;20025;-34
2023/01/09 00:21:11;;;;;;;3.00;1.30;;;;;;;16.64;49.84;99414.75;6153075;23;20036;-34
2023/01/09 00:23:38;;;;;;;2.70;1.30;;;;;;;16.64;49.98;99425.47;6150110;23;20408;-35
2023/01/09 00:26:07;;;;;;;2.45;1.25;;;;;;;16.62;50.21;99411.44;6153184;23;20025;-35
2023/01/09 00:28:35;;;;;;;2.42;1.10;;;;;;;16.61;50.39;99410.63;6153184;23;20390;-34
2023/01/09 00:31:03;;;;;;;1.55;1.10;;;;;;;16.62;50.81;99414.94;6153767;23;20032;-34
2023/01/09 00:33:33;;;;;;;3.35;1.67;;;;;;;16.60;51.08;99406.25;6152937;23;20049;-34
2023/01/09 00:36:00;;;;;;;1.48;1.00;;;;;;;16.60;50.51;99408.94;6153992;23;20105;-34
2023/01/09 00:38:27;;;;;;;1.85;1.10;;;;;;;16.59;50.21;99409.94;6154135;23;20026;-34
2023/01/09 00:40:54;;;;;;;1.98;1.13;;;;;;;16.58;49.75;99408.28;6155677;23;20279;-34
2023/01/09 00:43:25;;;;;;;1.80;1.10;;;;;;;16.56;50.15;99410.31;6155775;23;20032;-34
2023/01/09 00:45:51;;;;;;;2.47;1.33;;;;;;;16.56;50.49;99412.16;6155690;23;20096;-35
2023/01/09 00:48:25;;;;;;;1.70;1.00;;;;;;;16.54;50.63;99407.81;6154941;23;20022;-34
2023/01/09 00:50:56;;;;;;;1.90;0.82;;;;;;;16.54;50.27;99413.16;6156081;23;20025;-34
2023/01/09 00:53:27;;;;;;;2.40;1.08;;;;;;;16.53;51.06;99413.34;6154512;23;20334;-34
2023/01/09 00:55:58;;;;;;;3.65;1.23;;;;;;;16.52;49.99;99417.88;6155153;23;20025;-34
2023/01/09 00:58:24;;;;;;;2.28;0.98;;;;;;;16.51;49.81;99423.38;6155608;23;20514;-35
2023/01/09 01:00:51;;;;;;;2.42;0.93;;;;;;;16.50;50.10;99419.06;6156031;23;20025;-36
2023/01/09 01:03:18;;;;;;;1.35;0.75;;;;;;;16.48;49.86;99423.72;6155329;23;20029;-34
2023/01/09 01:08:30;;;;;;;3.75;1.65;;;;;;;16.48;50.62;99405.00;6154936;23;20035;-34
2023/01/09 01:10:56;;;;;;;2.25;1.00;;;;;;;16.47;50.73;99414.88;6155057;23;20289;-34
2023/01/09 01:13:23;;;;;;;2.33;1.10;;;;;;;16.46;50.84;99407.88;6155745;23;20021;-34
2023/01/09 01:15:49;;;;;;;2.22;1.00;;;;;;;16.46;50.41;99412.41;6155423;23;20025;-35
2023/01/09 01:18:16;;;;;;;1.85;1.00;;;;;;;16.45;50.47;99418.75;6154645;23;20136;-34
2023/01/09 01:20:43;;;;;;;2.17;0.88;;;;;;;16.45;50.65;99413.41;6154523;23;20021;-34
2023/01/09 01:23:10;;;;;;;1.90;0.98;;;;;;;16.44;50.53;99428.63;6152038;23;20108;-34
2023/01/09 01:25:40;;;;;;;3.63;1.27;;;;;;;16.43;50.42;99423.44;6154001;23;20029;-34
2023/01/09 01:28:07;;;;;;;3.08;1.33;;;;;;;16.42;49.91;99416.44;6155923;23;20025;-34
2023/01/09 01:30:41;;;;;;;1.58;1.00;;;;;;;16.40;50.70;99424.66;6154323;23;20022;-34
2023/01/09 01:33:09;;;;;;;2.88;0.90;;;;;;;16.40;50.89;99423.78;6155540;23;20032;-35
2023/01/09 01:35:36;;;;;;;1.73;1.15;;;;;;;16.40;50.32;99418.44;6155374;23;20100;-35
2023/01/09 01:38:03;;;;;;;1.92;1.00;;;;;;;16.39;50.31;99422.13;6153064;23;20481;-34
2023/01/09 01:40:29;;;;;;;2.60;1.08;;;;;;;16.37;50.06;99427.69;6153485;23;20460;-34
2023/01/09 01:42:57;;;;;;;1.45;0.80;;;;;;;16.37;50.40;99442.88;6155297;23;20029;-34
2023/01/09 01:45:28;;;;;;;3.03;1.27;;;;;;;16.36;50.35;99441.19;6154645;23;20072;-34
2023/01/09 01:48:06;;;;;;;1.92;1.35;;;;;;;16.36;50.59;99434.03;6153369;23;20118;-34
2023/01/09 01:51:09;;;;;;;2.35;0.93;;;;;;;16.31;50.13;99436.38;6154547;23;20029;-34
2023/01/09 01:53:45;;;;;;;1.83;1.00;;;;;;;16.32;50.08;99440.72;6033874;23;20035;-35
2023/01/09 01:56:34;;;;;;;2.70;0.85;;;;;;;16.31;50.57;99431.03;6139165;23;20028;-34
2023/01/09 01:59:08;;;;;;;3.55;1.08;;;;;;;16.33;50.56;99438.91;6154111;23;20022;-34
2023/01/09 02:01:39;;;;;;;3.38;1.00;;;;;;;16.33;50.94;99438.91;6154549;23;20026;-34
2023/01/09 02:04:07;;;;;;;1.60;1.08;;;;;;;16.32;50.57;99439.88;6154810;23;20068;-34
2023/01/09 02:06:34;;;;;;;3.58;0.90;;;;;;;16.33;50.26;99441.56;6154349;23;20025;-34
2023/01/09 02:09:03;;;;;;;2.60;1.00;;;;;;;16.33;50.91;99439.72;6153663;23;20638;-35
2023/01/09 02:11:31;;;;;;;3.15;1.00;;;;;;;16.34;50.64;99443.22;6154265;23;20021;-34
2023/01/09 02:13:59;;;;;;;5.47;1.30;;;;;;;16.33;50.27;99437.06;6154399;23;20117;-34
2023/01/09 02:16:46;;;;;;;1.60;0.90;;;;;;;16.34;50.69;99435.22;6154837;23;20025;-34
2023/01/09 02:19:40;;;;;;;1.98;1.30;;;;;;;16.30;50.20;99434.72;6154128;23;20032;-35
2023/01/09 02:22:36;;;;;;;2.63;0.97;;;;;;;16.32;50.49;99439.88;6154150;23;20041;-35
2023/01/09 02:25:21;;;;;;;2.40;1.15;;;;;;;16.33;50.37;99434.38;6153551;23;20025;-34
2023/01/09 02:28:07;;;;;;;2.50;1.10;;;;;;;16.33;50.56;99438.91;6155875;23;20029;-35
2023/01/09 02:30:45;;;;;;;1.15;1.00;;;;;;;16.34;50.23;99445.91;6152131;23;20025;-34
2023/01/09 02:34:01;;;;;;;4.22;0.90;;;;;;;16.34;50.72;99451.25;6156167;23;20026;-34
2023/01/09 02:36:49;;;;;;;3.83;1.00;;;;;;;16.35;50.02;99455.59;6156628;23;20025;-34
2023/01/09 02:39:36;;;;;;;4.43;1.10;;;;;;;16.34;50.69;99457.44;6156085;23;20047;-35
2023/01/09 02:42:11;;;;;;;1.58;1.00;;;;;;;16.35;50.81;99459.09;6155282;23;20025;-34
2023/01/09 02:44:41;;;;;;;2.67;1.00;;;;;;;16.34;49.95;99452.09;6156155;23;20025;-34
2023/01/09 02:47:14;;;;;;;2.55;1.05;;;;;;;16.35;50.90;99460.94;6156077;23;20029;-34
2023/01/09 02:49:45;;;;;;;1.55;0.93;;;;;;;16.33;49.85;99447.75;6156049;23;20045;-34
2023/01/09 02:52:17;;;;;;;1.45;1.08;;;;;;;16.33;49.74;99454.94;6156841;23;20021;-34
2023/01/09 02:55:22;;;;;;;1.50;0.90;;;;;;;16.33;50.58;99457.63;6154796;23;20021;-35
2023/01/09 02:58:06;;;;;;;;;;;;;;;16.29;50.88;99449.94;6132863;23;20029;-34
2023/01/09 03:00:51;;;;;;;2.95;1.30;;;;;;;16.32;50.24;99451.41;6157094;23;19999;-34
2023/01/09 03:03:30;;;;;;;2.42;1.10;;;;;;;16.27;50.06;99449.28;6154110;23;20025;-34
2023/01/09 03:06:26;;;;;;;1.55;0.90;;;;;;;16.28;50.30;99448.28;6153804;23;20026;-34
2023/01/09 03:08:58;;;;;;;3.25;0.88;;;;;;;16.27;51.10;99449.28;6140839;23;20271;-35
2023/01/09 03:11:30;;;;;;;1.58;1.15;;;;;;;16.26;50.33;99444.94;6152692;23;20108;-34
2023/01/09 03:14:04;;;;;;;2.83;1.20;;;;;;;16.25;50.63;99437.94;6153938;23;20029;-34
2023/01/09 03:16:35;;;;;;;3.97;1.05;;;;;;;16.24;50.53;99432.75;6154275;23;20022;-35
2023/01/09 03:19:06;;;;;;;2.53;0.90;;;;;;;16.25;50.94;99434.44;6153574;23;20064;-35
2023/01/09 03:21:33;;;;;;;2.63;0.98;;;;;;;16.24;50.52;99436.28;6152425;23;20544;-36
2023/01/09 03:24:01;;;;;;;2.28;1.20;;;;;;;16.22;50.36;99430.25;6152635;23;20104;-35
2023/01/09 03:26:29;;;;;;;2.75;1.10;;;;;;;16.23;50.46;99431.09;6153083;23;20028;-34
2023/01/09 03:28:58;;;;;;;2.00;1.00;;;;;;;16.22;49.99;99429.44;6153023;23;20365;-34
2023/01/09 03:31:24;;;;;;;2.92;1.10;;;;;;;16.21;50.50;99428.59;6153611;23;20058;-34
2023/01/09 03:33:51;;;;;;;5.20;1.42;;;;;;;16.19;49.94;99425.25;6154588;23;20022;-34
2023/01/09 03:36:19;;;;;;;1.00;0.90;;;;;;;16.19;50.30;99429.78;6153625;23;20022;-34
2023/01/09 03:38:46;;;;;;;1.98;1.02;;;;;;;16.19;50.99;99421.75;6152461;23;20057;-34
2023/01/09 03:41:13;;;;;;;2.53;1.10;;;;;;;16.17;50.30;99429.13;6154118;23;20022;-34
2023/01/09 03:43:39;;;;;;;2.42;1.00;;;;;;;16.18;51.19;99431.63;6156484;23;20029;-34
2023/01/09 03:46:06;;;;;;;3.28;1.20;;;;;;;16.16;50.31;99430.97;6155979;23;20025;-34
2023/01/09 03:48:32;;;;;;;3.55;1.05;;;;;;;16.17;50.66;99423.78;6155277;23;20026;-35
2023/01/09 03:50:59;;;;;;;3.42;1.10;;;;;;;16.16;50.82;99428.31;6156189;23;20032;-35
2023/01/09 03:53:27;;;;;;;2.55;1.05;;;;;;;16.15;50.47;99440.00;6155008;23;20100;-34
2023/01/09 03:55:56;;;;;;;3.08;1.30;;;;;;;16.14;50.98;99430.31;6155845;23;20017;-34
2023/01/09 03:58:23;;;;;;;2.70;1.17;;;;;;;16.15;50.52;99442.66;6155873;23;20030;-34
2023/01/09 04:00:51;;;;;;;2.13;1.25;;;;;;;16.15;51.08;99439.16;6155726;23;20036;-34
2023/01/09 04:03:19;;;;;;;3.45;1.25;;;;;;;16.14;51.12;99438.34;6156310;23;20113;-34
2023/01/09 04:05:48;;;;;;;4.07;1.30;;;;;;;16.14;50.38;99449.03;6156378;23;20047;-35
2023/01/09 04:08:15;;;;;;;2.33;1.00;;;;;;;16.13;50.90;99439.34;6155265;23;20108;-34
2023/01/09 04:10:46;;;;;;;1.90;0.93;;;;;;;16.12;50.79;99443.03;6155660;23;20286;-34
2023/01/09 04:13:12;;;;;;;2.15;1.35;;;;;;;16.12;50.66;99435.00;6153679;23;20052;-35
2023/01/09 04:15:39;;;;;;;2.20;1.08;;;;;;;16.11;50.24;99437.84;6154331;23;20028;-34
2023/01/09 04:18:06;;;;;;;2.13;1.00;;;;;;;16.09;50.79;99432.69;6153120;23;20398;-34
2023/01/09 04:20:32;;;;;;;2.75;1.10;;;;;;;16.09;50.59;99427.34;6153710;23;20022;-34
2023/01/09 04:22:59;;;;;;;1.65;1.17;;;;;;;16.09;51.00;99430.00;6152247;23;20056;-36
2023/01/09 04:25:26;;;;;;;2.35;0.90;;;;;;;16.07;51.29;99432.00;6152577;23;20490;-34
2023/01/09 04:27:53;;;;;;;1.70;1.00;;;;;;;16.08;50.48;99431.03;6153182;23;20421;-34
2023/01/09 04:30:19;;;;;;;2.65;1.05;;;;;;;16.07;50.92;99429.34;6153251;23;20108;-34
2023/01/09 04:32:46;;;;;;;2.55;1.40;;;;;;;16.07;50.50;99432.00;6153772;23;20021;-34
2023/01/09 04:35:13;;;;;;;3.33;1.00;;;;;;;16.06;51.00;99434.88;6153955;23;20104;-35
2023/01/09 04:37:39;;;;;;;1.65;1.25;;;;;;;16.05;51.15;99426.03;6152107;23;20028;-34
2023/01/09 04:40:09;;;;;;;2.28;1.08;;;;;;;16.03;50.92;99422.69;6152675;23;20025;-35
2023/01/09 04:42:36;;;;;;;2.75;1.30;;;;;;;16.04;50.51;99432.38;6153082;23;20333;-34
2023/01/09 04:45:05;;;;;;;3.05;1.48;;;;;;;16.03;50.78;99422.69;6154143;23;20025;-34
2023/01/09 04:47:32;;;;;;;1.52;1.10;;;;;;;16.03;51.19;99423.50;6152164;23;20092;-34
2023/01/09 04:49:59;;;;;;;2.75;1.10;;;;;;;16.03;50.33;99430.69;6154103;23;20035;-34
2023/01/09 04:52:26;;;;;;;3.20;1.00;;;;;;;16.01;51.03;99428.22;6152516;23;20453;-35
2023/01/09 04:54:53;;;;;;;2.90;1.50;;;;;;;16.02;51.10;99421.03;6152427;23;20033;-35
2023/01/09 04:57:19;;;;;;;1.92;1.20;;;;;;;16.03;50.58;99425.34;6153364;23;20028;-35
2023/01/09 04:59:46;;;;;;;2.72;1.10;;;;;;;16.03;50.25;99423.50;6153848;23;20026;-34
2023/01/09 05:02:13;;;;;;;2.60;1.25;;;;;;;16.03;50.38;99423.50;6153917;23;20031;-34
2023/01/09 05:04:39;;;;;;;1.77;0.90;;;;;;;16.04;51.16;99422.53;6154624;23;20021;-34
2023/01/09 05:07:06;;;;;;;2.63;1.20;;;;;;;16.06;50.91;99416.16;6152833;23;20022;-34
2023/01/09 05:09:33;;;;;;;2.45;1.35;;;;;;;16.04;50.10;99409.16;6152808;23;20044;-34
2023/01/09 05:11:59;;;;;;;1.83;1.08;;;;;;;16.04;50.20;99403.00;6153594;23;20473;-34
2023/01/09 05:14:27;;;;;;;2.25;1.10;;;;;;;16.05;50.40;99404.66;6155462;23;20060;-37
2023/01/09 05:16:53;;;;;;;3.53;1.25;;;;;;;16.05;50.49;99410.00;6155852;23;20021;-34
2023/01/09 05:19:20;;;;;;;1.70;1.00;;;;;;;16.06;50.37;99403.63;6155957;23;20055;-34
2023/01/09 05:21:47;;;;;;;3.20;1.10;;;;;;;16.07;50.89;99412.47;6155658;23;20025;-34
2023/01/09 05:24:13;;;;;;;2.47;1.08;;;;;;;16.08;50.07;99404.31;6155148;23;20032;-34
2023/01/09 05:26:40;;;;;;;2.40;1.17;;;;;;;16.07;50.74;99402.63;6155732;23;20108;-34
2023/01/09 05:29:06;;;;;;;1.50;1.17;;;;;;;16.08;50.97;99403.44;6156346;23;20060;-34
2023/01/09 05:31:33;;;;;;;3.03;1.10;;;;;;;16.08;50.90;99412.31;6156276;23;20397;-35
2023/01/09 05:33:59;;;;;;;4.55;1.50;;;;;;;16.08;50.67;99415.00;6156299;23;20026;-34
2023/01/09 05:36:27;;;;;;;5.40;1.25;;;;;;;16.09;49.94;99400.63;6155907;23;20325;-34
2023/01/09 05:38:53;;;;;;;4.00;1.20;;;;;;;16.09;50.34;99408.63;6154772;23;20104;-34
2023/01/09 05:41:20;;;;;;;3.00;1.23;;;;;;;16.09;50.95;99411.31;6155962;23;20028;-34
2023/01/09 05:43:49;;;;;;;4.60;1.20;;;;;;;16.07;50.23;99404.47;6156064;23;20032;-34
2023/01/09 05:46:16;;;;;;;5.20;1.77;;;;;;;16.08;50.54;99400.78;6155874;23;20252;-35
2023/01/09 05:48:43;;;;;;;1.63;1.20;;;;;;;16.08;50.61;99392.75;6155160;23;20043;-34
2023/01/09 05:51:11;;;;;;;3.33;1.48;;;;;;;16.07;50.70;99399.94;6156088;23;20026;-34
2023/01/09 05:53:37;;;;;;;3.88;1.30;;;;;;;16.07;50.70;99401.78;6155039;23;20052;-35
2023/01/09 05:56:04;;;;;;;2.28;1.20;;;;;;;16.06;50.65;99400.13;6155812;23;20258;-34
2023/01/09 05:58:30;;;;;;;4.53;1.10;;;;;;;16.06;49.91;99406.31;6155844;23;20021;-35
2023/01/09 06:00:57;;;;;;;2.53;1.05;;;;;;;16.04;50.04;99392.31;6155760;23;20053;-37
2023/01/09 06:03:24;;;;;;;3.88;1.38;;;;;;;16.02;50.24;99389.78;6156032;23;20303;-34
2023/01/09 06:05:51;;;;;;;4.28;1.33;;;;;;;16.03;49.79;99390.63;6156131;23;20116;-34
2023/01/09 06:08:17;;;;;;;2.90;1.20;;;;;;;16.02;50.07;99388.97;6154380;23;20025;-34
2023/01/09 06:10:45;;;;;;;2.10;1.10;;;;;;;16.01;50.68;99377.44;6156710;23;20022;-35
2023/01/09 06:13:11;;;;;;;2.65;1.20;;;;;;;16.01;49.83;99392.66;6157912;23;20028;-33
2023/01/09 06:15:38;;;;;;;3.70;1.50;;;;;;;15.99;50.01;99387.47;6157904;23;20022;-34
2023/01/09 06:18:05;;;;;;;3.92;1.40;;;;;;;15.98;50.78;99384.97;6157152;23;20100;-35
2023/01/09 06:20:31;;;;;;;2.00;1.15;;;;;;;15.97;51.01;99381.47;6157861;23;20104;-35
2023/01/09 06:22:58;;;;;;;4.00;1.30;;;;;;;15.96;49.96;99385.16;6156136;23;20060;-34
2023/01/09 06:25:24;;;;;;;3.03;1.48;;;;;;;15.94;50.47;99381.81;6155931;23;20311;-34
2023/01/09 06:27:51;;;;;;;1.75;1.40;;;;;;;15.94;49.96;99371.13;6157227;23;20021;-34
2023/01/09 06:30:19;;;;;;;4.25;1.50;;;;;;;15.95;50.23;99374.63;6156401;23;20021;-36
2023/01/09 06:32:49;;;;;;;2.60;1.30;;;;;;;15.95;50.45;99371.97;6157797;23;20021;-35
2023/01/09 06:35:19;;;;;;;3.22;1.10;;;;;;;15.97;49.96;99376.13;6155987;23;20251;-36
2023/01/09 06:37:47;;;;;;;3.50;1.38;;;;;;;15.97;50.15;99370.78;6157081;23;20021;-35
2023/01/09 06:40:13;;;;;;;2.92;1.48;;;;;;;15.97;50.41;99370.78;6152322;23;20021;-35
2023/01/09 06:42:44;;;;;;;4.53;1.30;;;;;;;15.97;49.81;99370.78;6156285;23;20028;-36
2023/01/09 06:45:12;;;;;;;4.85;1.70;;;;;;;15.99;50.75;99363.41;6157306;23;20025;-36
2023/01/09 06:47:39;;;;;;;3.65;1.45;;;;;;;15.97;50.06;99365.44;6156105;23;20036;-35
2023/01/09 06:50:08;;;;;;;3.38;1.40;;;;;;;15.98;50.76;99367.09;6156354;23;20021;-36
2023/01/09 06:52:38;;;;;;;3.22;1.48;;;;;;;15.97;49.75;99360.09;6156167;23;20060;-36
2023/01/09 06:55:05;;;;;;;6.72;1.80;;;;;;;15.97;50.19;99367.28;6153989;23;20029;-35
2023/01/09 06:57:31;;;;;;;2.88;1.30;;;;;;;15.97;50.67;99367.28;6155148;23;20029;-35
2023/01/09 06:59:58;;;;;;;7.22;1.77;;;;;;;15.97;50.71;99364.63;6155913;23;20025;-36
2023/01/09 07:02:24;;;;;;;3.53;1.60;;;;;;;15.96;49.86;99369.13;6156384;23;20108;-36
2023/01/09 07:04:51;;;;;;;4.03;1.77;;;;;;;15.96;50.46;99369.13;6156766;23;20104;-35
2023/01/09 07:07:19;;;;;;;3.20;1.70;;;;;;;15.97;49.87;99372.63;6155910;23;20018;-36
2023/01/09 07:09:45;;;;;;;4.28;1.60;;;;;;;15.97;50.41;99372.63;6153477;23;20021;-36
2023/01/09 07:12:13;;;;;;;3.90;1.13;;;;;;;15.97;50.59;99375.31;6157025;23;20053;-38
2023/01/09 07:14:40;;;;;;;4.78;2.15;;;;;;;15.97;50.87;99381.47;6156752;23;20037;-36
2023/01/09 07:17:08;;;;;;;4.47;1.52;;;;;;;15.96;50.10;99379.81;6153512;23;20056;-35
2023/01/09 07:19:35;;;;;;;3.95;1.58;;;;;;;15.95;50.76;99371.97;6154441;23;20053;-35
2023/01/09 07:22:01;;;;;;;4.20;1.38;;;;;;;15.95;51.05;99374.63;6155880;23;20044;-35
2023/01/09 07:24:28;;;;;;;3.28;1.48;;;;;;;15.95;50.21;99375.47;6154630;23;20096;-35
2023/01/09 07:26:55;;;;;;;2.72;1.30;;;;;;;15.95;50.98;99378.13;6155092;23;20025;-35
2023/01/09 07:29:21;;;;;;;3.22;1.63;;;;;;;15.95;50.66;99382.66;6155589;23;20032;-36
2023/01/09 07:31:48;;;;;;;3.85;1.30;;;;;;;15.94;50.37;99386.34;6153585;23;20342;-35
2023/01/09 07:34:15;;;;;;;3.20;1.20;;;;;;;15.93;51.13;99382.84;6156054;23;20026;-35
2023/01/09 07:36:45;;;;;;;4.43;1.45;;;;;;;15.94;50.74;99387.16;6153895;23;20018;-35
2023/01/09 07:39:12;;;;;;;4.70;1.50;;;;;;;15.94;50.22;99389.84;6153536;23;20028;-36
2023/01/09 07:41:39;;;;;;;6.25;2.22;;;;;;;15.94;50.88;99397.03;6153121;23;20283;-36
2023/01/09 07:44:06;;;;;;;5.13;1.75;;;;;;;15.93;51.17;99401.53;6155369;23;20456;-35
2023/01/09 07:46:35;;;;;;;3.60;1.30;;;;;;;15.94;51.09;99405.88;6153771;23;20064;-35
2023/01/09 07:49:02;;;;;;;5.03;1.67;;;;;;;15.94;50.49;99419.22;6154908;23;20057;-36
2023/01/09 07:51:29;;;;;;;3.65;1.67;;;;;;;15.94;50.22;99415.72;6154389;23;20454;-35
2023/01/09 07:53:55;;;;;;;4.68;1.83;;;;;;;15.96;50.42;99419.03;6152465;23;20128;-35
2023/01/09 07:56:22;;;;;;;2.92;1.30;;;;;;;15.96;50.44;99424.38;6150859;23;20088;-36
2023/01/09 07:58:48;;;;;;;3.38;1.40;;;;;;;15.99;50.43;99426.72;6151312;23;20033;-35
2023/01/09 08:01:15;;;;;;;2.25;1.20;;;;;;;16.00;50.16;99431.03;6155563;23;20144;-35
2023/01/09 08:03:42;;;;;;;5.10;1.55;;;;;;;16.01;50.96;99433.56;6154056;23;20060;-35
2023/01/09 08:06:09;;;;;;;3.15;1.45;;;;;;;16.03;50.38;99444.06;6154882;23;20049;-35
2023/01/09 08:08:35;;;;;;;4.10;1.67;;;;;;;16.05;50.54;99450.09;6152734;23;20386;-35
2023/01/09 08:11:02;;;;;;;2.75;1.50;;;;;;;16.05;50.48;99450.09;6155125;23;20036;-35
2023/01/09 08:13:28;;;;;;;2.47;1.48;;;;;;;16.07;51.34;99453.41;6155968;23;20092;-35
2023/01/09 08:15:55;;;;;;;3.65;1.70;;;;;;;16.08;50.42;99467.59;6156800;23;20268;-35
2023/01/09 08:18:22;;;;;;;1.58;1.13;;;;;;;16.07;51.16;99464.09;6155801;23;20061;-35
2023/01/09 08:20:48;;;;;;;3.92;1.27;;;;;;;16.09;50.59;99462.09;6154937;23;20060;-35
2023/01/09 08:23:15;;;;;;;4.00;1.50;;;;;;;16.09;50.50;99478.13;6154251;23;20026;-35
2023/01/09 08:25:41;;;;;;;2.65;1.40;;;;;;;16.09;51.40;99479.97;6154975;23;20029;-36
2023/01/09 08:28:08;;;;;;;3.42;1.67;;;;;;;16.09;51.75;99478.13;6155824;23;20304;-35
2023/01/09 08:30:35;;;;;;;4.47;1.55;;;;;;;16.10;50.56;99498.50;6155568;23;20332;-35
2023/01/09 08:33:02;;;;;;;4.82;1.40;;;;;;;16.10;50.99;99495.00;6155729;23;20026;-35
2023/01/09 08:35:28;;;;;;;4.00;1.98;;;;;;;16.11;50.74;99512.69;6156155;23;20021;-35
2023/01/09 08:37:55;;;;;;;3.45;1.70;;;;;;;16.10;50.67;99514.53;6154570;23;20416;-35
2023/01/09 08:40:21;;;;;;;3.45;1.60;;;;;;;16.11;51.72;99523.38;6153987;23;20766;-35
2023/01/09 08:48:19;;;;;;;6.30;1.92;;;;;;;16.13;51.73;99543.59;6155799;23;20104;-36
2023/01/09 08:50:45;;;;;;;3.53;1.50;;;;;;;16.14;52.21;99547.94;6155154;23;20057;-35
2023/01/09 08:53:12;;;;;;;4.07;1.95;;;;;;;16.13;51.54;99550.78;6152738;23;20056;-35
2023/01/09 08:55:39;;;;;;;4.85;2.00;;;;;;;16.14;51.50;99566.63;6154702;23;20123;-35
2023/01/09 08:58:05;;;;;;;4.88;2.42;;;;;;;16.14;51.76;99577.31;6154993;23;20061;-35
2023/01/09 09:00:32;;;;;;;3.05;2.17;;;;;;;16.15;51.70;99576.31;6154911;23;20022;-35
2023/01/09 09:03:00;;;;;;;3.67;2.00;;;;;;;16.16;51.95;99586.03;6126956;23;20028;-34
2023/01/09 09:05:28;;;;;;;4.25;2.30;;;;;;;16.17;52.51;99587.69;6154818;23;20021;-35
2023/01/09 09:07:55;;;;;;;5.25;2.50;;;;;;;16.18;52.63;99591.19;6153466;23;20064;-35
2023/01/09 09:10:25;;;;;;;4.55;1.98;;;;;;;16.18;52.29;99593.84;6155419;23;20060;-35
2023/01/09 09:12:54;;;;;;;4.18;2.10;;;;;;;16.19;52.63;99607.03;6154838;23;20036;-35
2023/01/09 09:15:25;;;;;;;4.20;2.13;;;;;;;16.20;53.10;99607.88;6153180;23;20095;-35
2023/01/09 09:17:56;;;;;;;4.63;2.10;;;;;;;16.19;53.41;99612.38;6153527;23;20285;-34
2023/01/09 09:20:26;;;;;;;4.82;2.03;;;;;;;16.21;52.94;99622.94;6154165;23;20060;-34
2023/01/09 09:22:53;;;;;;;4.03;2.05;;;;;;;16.23;52.52;99626.25;6151237;23;20039;-35
2023/01/09 09:25:20;;;;;;;4.00;2.20;;;;;;;16.25;52.92;99637.63;6152499;23;20337;-35
2023/01/09 09:27:47;;;;;;;3.22;1.77;;;;;;;16.26;53.08;99641.97;6154835;23;20028;-35
2023/01/09 09:30:16;;;;;;;3.00;1.70;;;;;;;16.26;53.35;99648.13;6153501;23;20107;-35
2023/01/09 09:32:43;;;;;;;4.72;2.30;;;;;;;16.27;52.83;99646.28;6155573;23;20104;-36
2023/01/09 09:35:11;;;;;;;2.95;1.80;;;;;;;16.28;52.65;99651.47;6153512;23;20311;-35
2023/01/09 09:37:38;;;;;;;4.75;2.00;;;;;;;16.31;52.56;99660.97;6152984;23;20041;-35
2023/01/09 09:40:06;;;;;;;4.13;2.08;;;;;;;16.31;53.61;99663.66;6150887;23;20030;-35
2023/01/09 09:45:41;;;;;;;4.18;1.95;;;;;;;16.34;52.65;99673.19;6156047;23;20128;-35
2023/01/09 09:48:29;;;;;;;5.35;2.20;;;;;;;16.35;53.66;99680.19;6152534;23;20104;-35
2023/01/09 09:51:11;;;;;;;3.88;2.08;;;;;;;16.37;52.76;99686.22;6151223;23;20030;-35
2023/01/09 09:53:54;;;;;;;4.20;2.03;;;;;;;16.37;52.71;99691.56;6151206;23;20345;-34
2023/01/09 09:56:22;;;;;;;2.60;1.55;;;;;;;16.39;53.41;99702.91;6149787;23;20031;-34
2023/01/09 09:59:16;;;;;;;4.15;2.28;;;;;;;16.37;53.90;99712.97;6149989;23;20017;-34
2023/01/09 10:02:01;;;;;;;3.75;2.10;;;;;;;16.39;53.16;99718.97;6135234;23;20049;-36
2023/01/09 10:04:32;;;;;;;5.00;2.60;;;;;;;16.41;53.44;99728.50;6149934;23;20044;-35
2023/01/09 10:07:05;;;;;;;3.70;2.08;;;;;;;16.42;53.19;99732.00;6151369;23;20335;-35
2023/01/09 10:09:59;;;;;;;4.45;1.90;;;;;;;16.39;53.08;99748.38;6151432;23;20036;-35
2023/01/09 10:12:27;;;;;;;;;;;;;;;16.40;53.13;99750.03;6148746;23;20109;-34
2023/01/09 10:14:59;;;;;;;3.10;1.70;;;;;;;16.44;53.18;99754.03;6152358;23;19921;-34
2023/01/09 10:17:57;;;;;;;6.22;2.35;;;;;;;16.41;53.84;99765.09;6152261;23;20104;-34
2023/01/09 10:20:56;;;;;;;3.35;1.95;;;;;;;16.42;53.97;99774.78;6156886;23;20025;-35
2023/01/09 10:23:26;;;;;;;3.67;1.80;;;;;;;16.43;53.68;99776.44;6153753;23;20038;-34
2023/01/09 10:26:01;;;;;;;2.95;1.48;;;;;;;16.43;54.02;99773.78;6154572;23;20057;-34
2023/01/09 10:29:07;;;;;;;3.33;1.73;;;;;;;16.41;54.37;99778.47;6156743;23;20018;-34
2023/01/09 10:31:46;;;;;;;3.10;1.77;;;;;;;16.42;54.57;99780.97;6152302;23;20572;-35
2023/01/09 10:34:45;;;;;;;3.22;1.52;;;;;;;16.43;54.28;99792.50;6155762;23;20021;-34
2023/01/09 10:37:22;;;;;;;5.35;1.80;;;;;;;16.45;53.28;99795.84;6139216;23;20045;-35
2023/01/09 10:39:54;;;;;;;2.83;1.60;;;;;;;16.46;53.72;99800.19;6154902;23;20028;-35
2023/01/09 10:42:35;;;;;;;2.85;1.80;;;;;;;16.47;53.91;99801.84;6154115;23;20036;-34
2023/01/09 10:45:27;;;;;;;4.75;2.00;;;;;;;16.48;54.09;99807.06;6154445;23;20036;-34
2023/01/09 10:48:02;;;;;;;4.40;2.13;;;;;;;16.53;54.42;99818.06;6151281;23;20032;-34
2023/01/09 10:50:34;;;;;;;5.10;2.05;;;;;;;16.56;53.93;99816.03;6152593;23;20028;-34
2023/01/09 10:53:14;;;;;;;4.25;1.65;;;;;;;16.58;53.87;99816.72;6150040;23;20092;-34
2023/01/09 10:55:46;;;;;;;6.25;1.92;;;;;;;16.61;53.89;99827.94;6154955;23;20053;-35
2023/01/09 10:58:19;;;;;;;5.65;1.90;;;;;;;16.65;53.54;99831.94;6153565;23;20084;-34
2023/01/09 11:00:47;;;;;;;2.60;1.50;;;;;;;16.69;53.84;99827.91;6151738;23;20029;-34
2023/01/09 11:03:20;;;;;;;4.40;1.83;;;;;;;16.72;53.75;99827.59;6152801;23;20053;-33
2023/01/09 11:05:51;;;;;;;3.78;1.40;;;;;;;16.74;53.18;99835.47;6156610;23;20056;-34
2023/01/09 11:08:40;;;;;;;4.22;1.65;;;;;;;16.73;53.60;99829.28;6155028;23;20025;-33
2023/01/09 11:11:08;;;;;;;3.97;1.70;;;;;;;16.75;53.42;99834.44;6155430;23;20032;-33
2023/01/09 11:13:37;;;;;;;3.95;1.60;;;;;;;16.74;53.52;99841.66;6156028;23;20056;-33
2023/01/09 11:16:09;;;;;;;4.45;1.67;;;;;;;16.73;54.00;99845.34;6156676;23;20025;-34
2023/01/09 11:18:39;;;;;;;3.05;1.40;;;;;;;16.72;53.44;99838.28;6156483;23;20260;-34
2023/01/09 11:21:34;;;;;;;4.60;1.60;;;;;;;16.70;53.17;99848.31;6155634;23;20429;-34
2023/01/09 11:24:27;;;;;;;6.70;1.77;;;;;;;16.71;53.60;99852.66;6154792;23;20033;-34
2023/01/09 11:27:22;;;;;;;4.85;1.60;;;;;;;16.75;54.00;99851.34;6155591;23;20033;-34
2023/01/09 11:30:07;;;;;;;3.97;1.90;;;;;;;16.76;54.46;99854.84;6156218;23;20021;-34
2023/01/09 11:32:34;;;;;;;3.03;1.58;;;;;;;16.78;53.71;99859.03;6156659;23;20017;-37
2023/01/09 11:35:06;;;;;;;2.60;1.60;;;;;;;16.80;53.17;99855.34;6155299;23;20394;-34
2023/01/09 11:37:33;;;;;;;3.67;1.45;;;;;;;16.81;53.32;99859.72;6155822;23;20018;-34
2023/01/09 11:40:00;;;;;;;4.47;1.88;;;;;;;16.81;53.35;99865.06;6154197;23;20026;-34
2023/01/09 11:45:28;;;;;;;6.50;1.70;;;;;;;16.80;54.33;99884.78;6153445;23;20028;-34
2023/01/09 11:47:55;;;;;;;4.18;1.50;;;;;;;16.80;53.85;99890.13;6149808;23;20033;-34
2023/01/09 11:50:24;;;;;;;5.50;2.15;;;;;;;16.79;53.99;99889.31;6151195;23;20034;-34
2023/01/09 11:53:14;;;;;;;6.07;1.98;;;;;;;16.76;53.73;99885.16;6150331;23;20067;-34
2023/01/09 11:55:42;;;;;;;4.00;1.63;;;;;;;16.80;54.10;99890.13;6151513;23;20026;-35
2023/01/09 11:58:15;;;;;;;4.22;1.77;;;;;;;16.80;53.90;99892.81;6152603;23;20021;-34
2023/01/09 12:01:10;;;;;;;4.65;1.85;;;;;;;16.78;53.89;99893.81;6150961;23;20036;-34
2023/01/09 12:04:13;;;;;;;8.23;1.95;;;;;;;16.79;54.42;99894.66;6150910;23;20037;-34
2023/01/09 12:07:08;;;;;;;6.68;2.17;;;;;;;16.80;54.73;99899.00;6154143;23;20108;-34